createdAt,value
2017-09-04T00:00:24.119Z,14.00
2017-09-04T00:02:51.659Z,15.50
2017-09-04T00:05:19.226Z,17.60
2017-09-04T00:10:20.835Z,13.70
2017-09-04T00:12:48.372Z,16.30
2017-09-04T00:15:15.923Z,14.60
2017-09-04T00:17:43.459Z,16.40
2017-09-04T00:20:11.011Z,19.13
2017-09-04T00:22:38.534Z,23.33
2017-09-04T00:25:06.088Z,16.37
2017-09-04T00:27:33.616Z,16.07
2017-09-04T00:30:01.142Z,15.20
2017-09-04T00:32:28.690Z,18.80
2017-09-04T00:34:56.227Z,20.77
2017-09-04T00:37:23.775Z,20.17
2017-09-04T00:39:51.299Z,16.00
2017-09-04T00:42:18.858Z,17.30
2017-09-04T00:44:46.396Z,20.23
2017-09-04T00:47:13.952Z,17.57
2017-09-04T00:49:41.479Z,17.70
2017-09-04T00:52:09.057Z,17.10
2017-09-04T00:54:36.582Z,18.83
2017-09-04T00:57:04.145Z,22.03
2017-09-04T00:59:31.677Z,21.27
2017-09-04T01:01:59.234Z,18.77
2017-09-04T01:04:26.764Z,17.43
2017-09-04T01:06:54.318Z,20.53
2017-09-04T01:09:21.847Z,24.43
2017-09-04T01:11:49.402Z,26.97
2017-09-04T01:14:16.940Z,20.97
2017-09-04T01:16:44.499Z,21.73
2017-09-04T01:19:12.028Z,19.83
2017-09-04T01:21:39.586Z,20.03
2017-09-04T01:24:07.118Z,19.67
2017-09-04T01:26:34.656Z,23.10
2017-09-04T01:29:02.223Z,21.83
2017-09-04T01:31:29.749Z,20.63
2017-09-04T01:33:57.307Z,23.00
2017-09-04T01:36:24.839Z,22.10
2017-09-04T01:38:52.401Z,17.80
2017-09-04T01:41:19.931Z,22.30
2017-09-04T01:43:47.486Z,20.83
2017-09-04T01:46:15.024Z,21.10
2017-09-04T01:48:42.578Z,21.47
2017-09-04T01:51:10.107Z,21.00
2017-09-04T01:53:37.663Z,18.63
2017-09-04T01:56:05.200Z,19.30
2017-09-04T01:58:32.760Z,18.13
2017-09-04T02:01:00.287Z,20.67
2017-09-04T02:03:27.844Z,18.73
2017-09-04T02:05:55.379Z,17.80
2017-09-04T02:08:22.940Z,21.10
2017-09-04T02:10:50.480Z,18.10
2017-09-04T02:13:18.045Z,19.27
2017-09-04T02:15:45.575Z,21.33
2017-09-04T02:18:13.122Z,19.90
2017-09-04T02:20:40.651Z,20.20
2017-09-04T02:23:08.209Z,17.13
2017-09-04T02:25:35.751Z,18.77
2017-09-04T02:28:03.326Z,16.53
2017-09-04T02:30:30.867Z,17.80
2017-09-04T02:32:58.397Z,21.40
2017-09-04T02:35:25.947Z,19.00
2017-09-04T02:37:53.475Z,18.33
2017-09-04T02:40:21.028Z,18.93
2017-09-04T02:42:48.568Z,20.23
2017-09-04T02:45:16.123Z,18.67
2017-09-04T02:47:43.663Z,17.80
2017-09-04T02:50:11.227Z,20.23
2017-09-04T02:52:38.763Z,28.27
2017-09-04T02:55:06.324Z,16.97
2017-09-04T02:57:33.862Z,16.20
2017-09-04T03:00:01.424Z,19.83
2017-09-04T03:02:28.962Z,20.00
2017-09-04T03:04:56.518Z,20.20
2017-09-04T03:07:24.046Z,20.67
2017-09-04T03:09:51.594Z,20.50
2017-09-04T03:12:19.123Z,22.57
2017-09-04T03:14:46.678Z,18.23
2017-09-04T03:17:14.214Z,25.03
2017-09-04T03:19:41.771Z,26.33
2017-09-04T03:22:09.302Z,34.37
2017-09-04T03:24:36.861Z,39.87
2017-09-04T03:27:04.394Z,45.57
2017-09-04T03:29:31.930Z,34.90
2017-09-04T03:31:59.487Z,34.70
2017-09-04T03:34:27.023Z,28.83
2017-09-04T03:36:54.575Z,31.20
2017-09-04T03:39:22.114Z,29.83
2017-09-04T03:41:49.670Z,23.20
2017-09-04T03:44:17.203Z,19.60
2017-09-04T03:46:44.756Z,19.00
2017-09-04T03:49:12.288Z,18.80
2017-09-04T03:51:39.840Z,18.67
2017-09-04T03:54:07.379Z,15.20
2017-09-04T03:56:34.926Z,20.13
2017-09-04T03:59:02.459Z,17.00
2017-09-04T04:01:30.015Z,18.53
2017-09-04T04:03:57.543Z,16.20
2017-09-04T04:06:25.098Z,25.23
2017-09-04T04:08:52.628Z,20.33
2017-09-04T04:11:20.188Z,19.30
2017-09-04T04:13:47.718Z,19.27
2017-09-04T04:16:15.280Z,24.40
2017-09-04T04:18:42.806Z,21.50
2017-09-04T04:21:10.364Z,20.60
2017-09-04T04:23:37.894Z,19.40
2017-09-04T04:26:05.450Z,21.43
2017-09-04T04:28:32.983Z,20.30
2017-09-04T04:31:00.514Z,21.70
2017-09-04T04:33:28.076Z,21.27
2017-09-04T04:35:55.750Z,21.17
2017-09-04T04:38:23.331Z,19.80
2017-09-04T04:40:50.862Z,20.97
2017-09-04T04:43:18.426Z,18.50
2017-09-04T04:45:46.014Z,18.80
2017-09-04T04:48:13.571Z,20.73
2017-09-04T04:50:41.099Z,17.50
2017-09-04T04:53:08.660Z,25.80
2017-09-04T04:55:36.225Z,22.77
2017-09-04T04:58:03.763Z,22.63
2017-09-04T05:00:31.304Z,21.20
2017-09-04T05:02:58.885Z,23.63
2017-09-04T05:05:26.415Z,20.97
2017-09-04T05:07:54.035Z,19.97
2017-09-04T05:10:21.563Z,22.40
2017-09-04T05:12:49.122Z,22.10
2017-09-04T05:15:16.655Z,25.33
2017-09-04T05:17:44.219Z,22.30
2017-09-04T05:20:11.747Z,31.03
2017-09-04T05:22:39.299Z,30.00
2017-09-04T05:25:06.834Z,27.37
2017-09-04T05:27:34.395Z,29.83
2017-09-04T05:30:01.923Z,27.27
2017-09-04T05:32:29.455Z,28.93
2017-09-04T05:34:57.013Z,30.63
2017-09-04T05:37:24.545Z,27.03
2017-09-04T05:39:52.099Z,32.80
2017-09-04T05:42:19.638Z,37.13
2017-09-04T05:44:47.356Z,39.53
2017-09-04T05:47:14.885Z,31.87
2017-09-04T05:49:42.442Z,31.47
2017-09-04T05:52:09.970Z,30.40
2017-09-04T05:54:37.518Z,26.63
2017-09-04T05:57:05.054Z,24.57
2017-09-04T05:59:32.612Z,25.63
2017-09-04T06:02:00.148Z,26.13
2017-09-04T06:04:27.707Z,27.67
2017-09-04T06:06:55.250Z,26.40
2017-09-04T06:09:22.815Z,28.53
2017-09-04T06:11:50.346Z,25.67
2017-09-04T06:14:17.903Z,25.73
2017-09-04T06:16:45.430Z,25.13
2017-09-04T06:19:12.982Z,27.80
2017-09-04T06:21:40.518Z,28.53
2017-09-04T06:24:08.069Z,28.03
2017-09-04T06:26:35.597Z,27.73
2017-09-04T06:29:03.164Z,24.30
2017-09-04T06:31:30.707Z,21.13
2017-09-04T06:33:58.234Z,26.20
2017-09-04T06:36:25.799Z,16.17
2017-09-04T06:38:53.330Z,21.20
2017-09-04T06:41:20.891Z,18.97
2017-09-04T06:43:48.428Z,16.87
2017-09-04T06:46:15.985Z,18.60
2017-09-04T06:48:43.518Z,17.97
2017-09-04T06:51:11.084Z,22.80
2017-09-04T06:53:38.635Z,22.17
2017-09-04T06:56:06.196Z,20.90
2017-09-04T06:58:33.727Z,24.93
2017-09-04T07:01:01.289Z,24.43
2017-09-04T07:03:28.822Z,21.57
2017-09-04T07:05:56.388Z,18.60
2017-09-04T07:08:23.930Z,21.07
2017-09-04T07:10:51.483Z,20.67
2017-09-04T07:13:19.013Z,18.83
2017-09-04T07:15:46.575Z,19.90
2017-09-04T07:18:14.115Z,20.50
2017-09-04T07:20:41.674Z,20.50
2017-09-04T07:23:09.204Z,18.97
2017-09-04T07:25:36.759Z,19.20
2017-09-04T07:28:04.288Z,16.40
2017-09-04T07:30:31.864Z,17.70
2017-09-04T07:32:59.391Z,16.07
2017-09-04T07:35:26.924Z,17.93
2017-09-04T07:37:54.486Z,15.50
2017-09-04T07:40:22.019Z,16.77
2017-09-04T07:42:49.579Z,15.27
2017-09-04T07:45:17.121Z,15.13
2017-09-04T07:47:44.680Z,13.37
2017-09-04T07:50:12.211Z,16.30
2017-09-04T07:52:39.784Z,13.80
2017-09-04T07:55:07.313Z,18.73
2017-09-04T07:57:34.862Z,13.80
2017-09-04T08:00:02.399Z,13.83
2017-09-04T08:02:29.964Z,14.70
2017-09-04T08:04:57.502Z,13.90
2017-09-04T08:07:25.051Z,17.10
2017-09-04T08:09:52.587Z,12.47
2017-09-04T08:12:20.143Z,13.30
2017-09-04T08:14:47.675Z,14.83
2017-09-04T08:17:15.239Z,15.50
2017-09-04T08:19:42.777Z,14.63
2017-09-04T08:22:10.334Z,13.40
2017-09-04T08:24:37.864Z,15.83
2017-09-04T08:27:05.414Z,15.03
2017-09-04T08:29:32.941Z,13.73
2017-09-04T08:32:00.518Z,13.57
2017-09-04T08:34:28.051Z,17.70
2017-09-04T08:36:55.582Z,15.03
2017-09-04T08:39:23.131Z,12.50
2017-09-04T08:41:50.666Z,12.70
2017-09-04T08:44:18.218Z,11.67
2017-09-04T08:46:45.754Z,12.83
2017-09-04T08:49:13.310Z,11.00
2017-09-04T08:51:40.847Z,15.30
2017-09-04T08:54:08.402Z,14.03
2017-09-04T08:56:35.930Z,15.70
2017-09-04T08:59:03.488Z,13.07
2017-09-04T09:01:31.011Z,13.50
2017-09-04T09:03:58.566Z,13.30
2017-09-04T09:06:26.103Z,16.83
2017-09-04T09:08:53.663Z,20.70
2017-09-04T09:11:21.196Z,34.37
2017-09-04T09:13:48.751Z,21.77
2017-09-04T09:16:16.270Z,19.47
2017-09-04T09:18:43.830Z,23.43
2017-09-04T09:21:11.367Z,21.00
2017-09-04T09:23:38.926Z,19.67
2017-09-04T09:26:06.462Z,22.50
2017-09-04T09:28:34.021Z,22.90
2017-09-04T09:31:01.556Z,17.50
2017-09-04T09:33:29.107Z,22.03
2017-09-04T09:35:56.643Z,19.77
2017-09-04T09:38:24.202Z,19.70
2017-09-04T09:40:51.735Z,16.23
2017-09-04T09:43:19.283Z,18.13
2017-09-04T09:45:46.834Z,15.30
2017-09-04T09:48:14.370Z,16.80
2017-09-04T09:50:41.924Z,16.03
2017-09-04T09:53:09.461Z,18.13
2017-09-04T09:55:37.008Z,27.63
2017-09-04T09:58:04.543Z,19.13
2017-09-04T10:00:32.096Z,16.23
2017-09-04T10:02:59.631Z,26.30
2017-09-04T10:05:27.190Z,19.43
2017-09-04T10:07:54.723Z,22.47
2017-09-04T10:10:22.277Z,20.20
2017-09-04T10:12:49.811Z,20.17
2017-09-04T10:15:17.366Z,21.10
2017-09-04T10:17:44.897Z,29.57
2017-09-04T10:20:12.454Z,31.73
2017-09-04T10:22:39.986Z,32.60
2017-09-04T10:25:07.543Z,28.97
2017-09-04T10:27:35.069Z,29.63
2017-09-04T10:30:02.626Z,33.83
2017-09-04T10:32:30.157Z,31.60
2017-09-04T10:34:57.717Z,30.73
2017-09-04T10:37:25.254Z,26.30
2017-09-04T10:39:52.783Z,21.33
2017-09-04T10:42:20.330Z,21.27
2017-09-04T10:44:47.867Z,20.77
2017-09-04T10:47:15.441Z,17.97
2017-09-04T10:49:42.972Z,15.37
2017-09-04T10:52:10.526Z,14.50
2017-09-04T10:54:38.055Z,15.10
2017-09-04T10:57:05.612Z,12.20
2017-09-04T10:59:33.138Z,10.97
2017-09-04T11:02:00.700Z,12.23
2017-09-04T11:04:28.235Z,8.10
2017-09-04T11:06:55.791Z,13.90
2017-09-04T11:09:23.314Z,9.80
2017-09-04T11:11:50.871Z,9.57
2017-09-04T11:14:18.399Z,7.40
2017-09-04T11:16:45.954Z,11.10
2017-09-04T11:19:13.482Z,11.20
2017-09-04T11:21:41.026Z,12.80
2017-09-04T11:24:08.550Z,15.50
2017-09-04T11:26:36.099Z,9.83
2017-09-04T11:29:03.622Z,9.60
2017-09-04T11:31:31.187Z,10.20
2017-09-04T11:33:58.714Z,15.70
2017-09-04T11:36:26.291Z,12.97
2017-09-04T11:38:53.825Z,7.60
2017-09-04T11:41:21.356Z,7.73
2017-09-04T11:43:48.911Z,6.53
2017-09-04T11:46:16.434Z,7.37
2017-09-04T11:48:43.987Z,7.60
2017-09-04T11:51:11.519Z,6.90
2017-09-04T11:53:39.074Z,8.87
2017-09-04T11:56:06.604Z,8.57
2017-09-04T11:58:34.162Z,6.40
2017-09-04T12:01:01.695Z,7.50
2017-09-04T12:03:29.238Z,7.53
2017-09-04T12:05:56.758Z,5.77
2017-09-04T12:08:24.317Z,10.83
2017-09-04T12:10:51.847Z,10.13
2017-09-04T12:13:19.393Z,14.87
2017-09-04T12:15:46.926Z,10.10
2017-09-04T12:18:14.470Z,7.80
2017-09-04T12:20:41.999Z,7.63
2017-09-04T12:23:09.550Z,6.13
2017-09-04T12:25:37.082Z,6.30
2017-09-04T12:28:04.638Z,7.23
2017-09-04T12:30:32.159Z,5.87
2017-09-04T12:32:59.718Z,5.60
2017-09-04T12:35:27.238Z,5.07
2017-09-04T12:37:54.803Z,5.33
2017-09-04T12:40:22.330Z,6.73
2017-09-04T12:42:49.872Z,12.27
2017-09-04T12:45:17.423Z,9.37
2017-09-04T12:47:44.951Z,7.30
2017-09-04T12:50:12.513Z,7.60
2017-09-04T12:52:40.047Z,7.90
2017-09-04T12:55:07.590Z,6.10
2017-09-04T12:57:35.119Z,7.53
2017-09-04T13:00:02.662Z,7.57
2017-09-04T13:02:30.189Z,9.17
2017-09-04T13:04:57.743Z,9.70
2017-09-04T13:07:25.274Z,8.30
2017-09-04T13:09:52.823Z,7.93
2017-09-04T13:12:22.153Z,7.17
2017-09-04T13:14:55.395Z,8.30
2017-09-04T13:17:28.582Z,7.70
2017-09-04T13:20:01.742Z,10.30
2017-09-04T13:22:34.853Z,8.27
2017-09-04T13:28:11.043Z,7.60
2017-09-04T13:30:43.604Z,10.40
2017-09-04T13:33:16.860Z,11.60
2017-09-04T13:35:49.987Z,6.70
2017-09-04T13:38:23.309Z,5.17
2017-09-04T13:40:56.451Z,4.20
2017-09-04T13:46:52.591Z,4.80
2017-09-04T13:49:25.858Z,8.50
2017-09-04T13:51:59.175Z,5.00
2017-09-04T13:57:53.530Z,4.93
2017-09-04T14:03:35.943Z,5.20
2017-09-04T14:09:14.126Z,6.10
2017-09-04T14:11:55.452Z,7.30
2017-09-04T14:14:28.712Z,6.00
2017-09-04T14:20:00.466Z,6.00
2017-09-04T14:22:28.032Z,5.13
2017-09-04T14:24:55.573Z,5.40
2017-09-04T14:27:23.119Z,5.90
2017-09-04T14:29:50.655Z,5.00
2017-09-04T14:32:18.210Z,7.10
2017-09-04T14:34:45.748Z,7.60
2017-09-04T14:37:13.305Z,6.23
2017-09-04T14:39:40.834Z,4.60
2017-09-04T14:42:08.385Z,5.53
2017-09-04T14:44:35.917Z,5.73
2017-09-04T14:47:12.110Z,5.20
2017-09-04T14:49:39.639Z,6.40
2017-09-04T14:52:07.192Z,6.10
2017-09-04T14:54:34.715Z,8.27
2017-09-04T14:57:02.264Z,5.30
2017-09-04T14:59:29.803Z,5.50
2017-09-04T15:01:57.524Z,9.00
2017-09-04T15:04:25.059Z,6.30
2017-09-04T15:06:52.606Z,4.90
2017-09-04T15:09:20.134Z,4.00
2017-09-04T15:11:47.691Z,5.30
2017-09-04T15:14:15.219Z,5.83
2017-09-04T15:16:42.750Z,7.40
2017-09-04T15:19:10.298Z,13.40
2017-09-04T15:21:37.823Z,8.33
2017-09-04T15:24:05.375Z,5.23
2017-09-04T15:26:32.898Z,6.20
2017-09-04T15:29:00.455Z,6.27
2017-09-04T15:31:27.988Z,5.33
2017-09-04T15:33:55.544Z,5.50
2017-09-04T15:36:23.072Z,5.10
2017-09-04T15:38:50.619Z,5.50
2017-09-04T15:41:18.139Z,5.80
2017-09-04T15:43:45.704Z,6.77
2017-09-04T15:46:13.244Z,11.03
2017-09-04T15:48:40.800Z,7.53
2017-09-04T15:51:08.352Z,7.60
2017-09-04T15:53:35.924Z,6.90
2017-09-04T15:56:03.465Z,4.80
2017-09-04T15:58:31.021Z,6.13
2017-09-04T16:00:58.857Z,5.40
2017-09-04T16:03:26.404Z,5.80
2017-09-04T16:05:54.546Z,8.73
2017-09-04T16:08:23.043Z,6.40
2017-09-04T16:11:07.268Z,5.20
2017-09-04T16:13:35.298Z,7.30
2017-09-04T16:19:11.492Z,9.33
2017-09-04T16:24:45.966Z,6.10
2017-09-04T16:27:19.164Z,9.30
2017-09-04T16:29:48.520Z,5.97
2017-09-04T16:32:18.996Z,7.30
2017-09-04T16:34:47.361Z,8.03
2017-09-04T16:40:21.860Z,5.10
2017-09-04T16:42:49.394Z,6.90
2017-09-04T16:48:38.875Z,6.70
2017-09-04T16:51:06.431Z,5.43
2017-09-04T16:53:34.592Z,7.90
2017-09-04T16:56:19.995Z,6.10
2017-09-04T16:58:47.526Z,7.50
2017-09-04T17:01:15.095Z,7.00
2017-09-04T17:03:42.626Z,7.23
2017-09-04T17:06:10.187Z,5.43
2017-09-04T17:08:39.570Z,6.53
2017-09-04T17:11:08.043Z,10.20
2017-09-04T17:13:35.575Z,8.17
2017-09-04T17:16:03.127Z,5.80
2017-09-04T17:18:32.626Z,6.57
2017-09-04T17:21:05.019Z,6.93
2017-09-04T17:23:33.642Z,7.50
2017-09-04T17:26:01.211Z,6.27
2017-09-04T17:28:28.761Z,8.23
2017-09-04T17:30:56.313Z,6.20
2017-09-04T17:33:23.846Z,8.97
2017-09-04T17:35:55.844Z,7.03
2017-09-04T17:38:23.384Z,10.87
2017-09-04T17:40:50.919Z,8.07
2017-09-04T17:43:18.564Z,9.10
2017-09-04T17:45:46.110Z,5.97
2017-09-04T17:48:13.682Z,5.70
2017-09-04T17:50:41.218Z,7.27
2017-09-04T17:53:08.763Z,7.43
2017-09-04T17:55:36.299Z,6.20
2017-09-04T17:58:03.859Z,8.27
2017-09-04T18:00:31.383Z,6.20
2017-09-04T18:02:58.944Z,8.10
2017-09-04T18:05:26.483Z,6.70
2017-09-04T18:07:54.045Z,6.20
2017-09-04T18:10:21.591Z,7.37
2017-09-04T18:12:49.151Z,8.23
2017-09-04T18:15:16.684Z,6.83
2017-09-04T18:17:44.244Z,6.23
2017-09-04T18:20:11.874Z,8.27
2017-09-04T18:22:39.459Z,12.37
2017-09-04T18:25:06.994Z,5.83
2017-09-04T18:27:34.556Z,6.37
2017-09-04T18:30:02.112Z,7.00
2017-09-04T18:32:29.670Z,7.13
2017-09-04T18:34:57.238Z,7.13
2017-09-04T18:37:24.788Z,6.67
2017-09-04T18:39:52.347Z,8.77
2017-09-04T18:42:19.900Z,7.10
2017-09-04T18:44:47.496Z,6.37
2017-09-04T18:47:15.038Z,14.30
2017-09-04T18:49:42.596Z,8.50
2017-09-04T18:52:10.132Z,10.03
2017-09-04T18:54:37.695Z,6.57
2017-09-04T18:57:05.227Z,7.67
2017-09-04T18:59:32.782Z,12.70
2017-09-04T19:02:00.309Z,7.87
2017-09-04T19:04:27.864Z,7.00
2017-09-04T19:06:55.399Z,10.10
2017-09-04T19:11:52.158Z,7.33
2017-09-04T19:14:20.750Z,8.37
2017-09-04T19:16:49.216Z,7.60
2017-09-04T19:19:17.570Z,8.67
2017-09-04T19:21:45.768Z,7.63
2017-09-04T19:24:14.050Z,8.70
2017-09-04T19:26:42.300Z,10.17
2017-09-04T19:29:10.593Z,7.57
2017-09-04T19:31:38.178Z,8.20
2017-09-04T19:34:07.013Z,7.63
2017-09-04T19:36:34.802Z,6.53
2017-09-04T19:39:03.751Z,9.03
2017-09-04T19:41:34.359Z,9.23
2017-09-04T19:44:01.908Z,7.73
2017-09-04T19:46:29.465Z,8.03
2017-09-04T19:48:56.998Z,6.50
2017-09-04T19:51:24.559Z,6.80
2017-09-04T19:53:52.218Z,10.00
2017-09-04T19:56:19.771Z,8.20
2017-09-04T19:58:47.303Z,9.20
2017-09-04T20:01:14.867Z,10.20
2017-09-04T20:03:42.403Z,8.27
2017-09-04T20:06:09.965Z,11.40
2017-09-04T20:08:37.497Z,9.00
2017-09-04T20:11:05.042Z,8.57
2017-09-04T20:13:32.573Z,9.83
2017-09-04T20:16:00.132Z,13.20
2017-09-04T20:18:27.664Z,7.83
2017-09-04T20:20:55.225Z,10.77
2017-09-04T20:23:22.768Z,12.73
2017-09-04T20:25:50.319Z,9.30
2017-09-04T20:28:17.860Z,8.07
2017-09-04T20:30:45.426Z,11.70
2017-09-04T20:33:12.964Z,9.77
2017-09-04T20:35:40.518Z,10.37
2017-09-04T20:38:08.046Z,8.97
2017-09-04T20:40:35.608Z,7.90
2017-09-04T20:43:03.135Z,9.50
2017-09-04T20:45:30.691Z,9.47
2017-09-04T20:47:58.246Z,10.43
2017-09-04T20:50:25.788Z,10.43
2017-09-04T20:52:53.348Z,9.60
2017-09-04T20:55:20.882Z,7.77
2017-09-04T20:57:48.444Z,10.97
2017-09-04T21:00:15.971Z,11.13
2017-09-04T21:02:43.615Z,8.30
2017-09-04T21:05:11.190Z,9.50
2017-09-04T21:07:38.750Z,8.50
2017-09-04T21:10:06.274Z,9.00
2017-09-04T21:12:33.822Z,9.67
2017-09-04T21:15:01.346Z,8.10
2017-09-04T21:17:28.908Z,7.90
2017-09-04T21:19:56.434Z,7.80
2017-09-04T21:22:23.987Z,8.00
2017-09-04T21:24:51.520Z,7.00
2017-09-04T21:27:19.079Z,8.33
2017-09-04T21:29:46.606Z,11.60
2017-09-04T21:32:14.158Z,8.40
2017-09-04T21:34:41.679Z,9.03
2017-09-04T21:37:09.227Z,8.57
2017-09-04T21:39:36.762Z,10.50
2017-09-04T21:42:04.334Z,10.17
2017-09-04T21:44:31.868Z,10.80
2017-09-04T21:46:59.403Z,9.03
2017-09-04T21:49:26.951Z,10.27
2017-09-04T21:51:54.486Z,9.00
2017-09-04T21:54:22.043Z,9.50
2017-09-04T21:56:49.573Z,8.80
2017-09-04T21:59:17.122Z,9.67
2017-09-04T22:01:45.583Z,8.27
2017-09-04T22:04:13.138Z,8.90
2017-09-04T22:06:40.661Z,8.57
2017-09-04T22:09:08.219Z,9.27
2017-09-04T22:11:35.746Z,18.03
2017-09-04T22:14:03.295Z,9.73
2017-09-04T22:16:30.829Z,9.50
2017-09-04T22:18:58.383Z,10.10
2017-09-04T22:21:25.911Z,11.13
2017-09-04T22:23:53.466Z,8.63
2017-09-04T22:26:21.000Z,9.47
2017-09-04T22:28:48.550Z,9.30
2017-09-04T22:51:38.290Z,9.27
2017-09-04T22:54:05.831Z,9.17
2017-09-04T22:56:33.359Z,9.23
2017-09-04T22:59:01.670Z,8.07
2017-09-04T23:01:29.225Z,8.43
2017-09-04T23:03:56.774Z,10.93
2017-09-04T23:06:24.303Z,9.00
2017-09-04T23:08:51.828Z,8.50
2017-09-04T23:11:19.381Z,10.60
2017-09-04T23:13:46.901Z,8.33
2017-09-04T23:16:14.459Z,9.77
2017-09-04T23:18:42.023Z,8.70
2017-09-04T23:21:09.576Z,9.30
2017-09-04T23:23:37.106Z,7.77
2017-09-04T23:26:04.658Z,8.70
2017-09-04T23:28:32.184Z,7.77
2017-09-04T23:30:59.738Z,8.27
2017-09-04T23:33:27.262Z,8.27
2017-09-04T23:35:54.823Z,10.50
2017-09-04T23:38:22.359Z,8.60
2017-09-04T23:40:49.911Z,7.03
2017-09-04T23:43:17.444Z,7.10
2017-09-04T23:45:45.005Z,7.63
2017-09-04T23:48:12.567Z,9.33
2017-09-04T23:50:40.127Z,7.67
2017-09-04T23:53:07.669Z,8.57
2017-09-04T23:55:35.219Z,6.40
2017-09-04T23:58:02.760Z,7.70
